Time;durP1;ratioP1;P1;durP2;ratioP2;P2;SDS_P1;SDS_P2;PMS_P1;PMS_P2;Temp;Humidity;BMP_temperature;BMP_pressure;BME280_temperature;BME280_humidity;BME280_pressure;Samples;Min_cycle;Max_cycle;Signal;HPM_P1;HPM_P2
2022/03/16 00:00:13;;;;;;;4.13;3.77;;;16.80;50.80;18.00;101645.00;;;;5074175;28;20635;-50
2022/03/16 00:02:39;;;;;;;4.23;3.83;;;16.60;51.10;18.00;101642.00;;;;5074714;28;20860;-51
2022/03/16 00:05:05;;;;;;;4.30;3.90;;;16.60;51.10;17.90;101649.00;;;;5072194;28;20288;-51
2022/03/16 00:07:30;;;;;;;4.30;3.90;;;16.70;51.00;17.90;101638.00;;;;5074328;28;20177;-50
2022/03/16 00:09:56;;;;;;;3.90;3.60;;;16.70;51.00;17.90;101643.00;;;;5078426;28;20260;-49
2022/03/16 00:12:22;;;;;;;4.23;3.90;;;16.60;50.90;17.90;101642.00;;;;5081999;28;20253;-49
2022/03/16 00:14:47;;;;;;;3.90;3.60;;;16.70;50.90;17.90;101656.00;;;;5079042;28;20697;-49
2022/03/16 00:17:13;;;;;;;4.13;3.73;;;16.60;50.90;17.80;101643.00;;;;5074472;28;20166;-49
2022/03/16 00:19:40;;;;;;;4.43;3.53;;;16.50;50.80;17.80;101632.00;;;;5074019;28;20390;-48
2022/03/16 00:22:06;;;;;;;4.10;3.43;;;16.50;50.80;17.80;101651.00;;;;5073750;28;20235;-49
2022/03/16 00:24:32;;;;;;;4.80;3.70;;;16.50;50.90;17.70;101642.00;;;;5073258;28;20177;-49
2022/03/16 00:26:57;;;;;;;4.37;3.97;;;16.40;50.90;17.70;101642.00;;;;5074291;28;20204;-48
2022/03/16 00:29:23;;;;;;;4.20;3.80;;;16.40;51.00;17.70;101635.00;;;;5074026;28;20249;-50
2022/03/16 00:31:49;;;;;;;4.27;3.87;;;16.40;51.00;17.60;101628.00;;;;5072722;28;20180;-48
2022/03/16 00:34:15;;;;;;;4.00;3.70;;;16.40;51.00;17.60;101623.00;;;;5072288;28;20165;-49
2022/03/16 00:36:40;;;;;;;4.10;3.80;;;16.30;50.90;17.60;101621.00;;;;5073087;28;20197;-48
2022/03/16 00:39:06;;;;;;;4.90;3.70;;;16.30;50.90;17.50;101642.00;;;;5071749;28;20936;-50
2022/03/16 00:41:33;;;;;;;3.60;3.30;;;16.10;49.20;17.50;101641.00;;;;5072635;28;20264;-49
2022/03/16 00:43:59;;;;;;;4.40;4.00;;;15.70;52.00;17.40;101652.00;;;;5076495;28;20178;-49
2022/03/16 00:46:25;;;;;;;3.90;3.60;;;15.90;51.60;17.40;101652.00;;;;5075167;28;20212;-50
2022/03/16 00:48:50;;;;;;;3.80;3.50;;;16.00;51.30;17.40;101643.00;;;;5078843;28;20216;-49
2022/03/16 00:51:16;;;;;;;3.93;3.63;;;16.10;51.20;17.40;101651.00;;;;5074285;28;20188;-49
2022/03/16 00:53:42;;;;;;;3.80;3.50;;;16.10;51.10;17.30;101646.00;;;;5073869;28;20183;-48
2022/03/16 00:56:08;;;;;;;3.63;3.33;;;16.10;51.00;17.30;101643.00;;;;5075122;28;20569;-48
2022/03/16 00:58:34;;;;;;;3.70;3.40;;;16.10;51.00;17.30;101645.00;;;;5073377;28;20208;-49
2022/03/16 01:01:00;;;;;;;4.03;3.63;;;16.10;51.00;17.30;101636.00;;;;5075121;28;20638;-49
2022/03/16 01:03:27;;;;;;;3.87;3.40;;;16.10;50.90;17.30;101643.00;;;;5071913;28;20705;-49
2022/03/16 01:05:53;;;;;;;3.70;3.40;;;16.00;50.90;17.20;101626.00;;;;5072243;28;20292;-48
2022/03/16 01:08:19;;;;;;;3.60;3.30;;;16.00;50.80;17.20;101622.00;;;;5074769;28;20170;-48
2022/03/16 01:10:44;;;;;;;3.90;3.30;;;16.00;50.80;17.20;101567.00;;;;5071536;28;20184;-49
2022/03/16 01:13:10;;;;;;;3.70;3.40;;;15.90;50.70;17.20;101636.00;;;;5073224;28;20169;-50
2022/03/16 01:15:36;;;;;;;3.50;3.27;;;15.90;51.10;17.20;101631.00;;;;5072618;28;20189;-49
2022/03/16 01:18:01;;;;;;;3.70;3.40;;;15.90;50.90;17.10;101642.00;;;;5072038;28;20174;-49
2022/03/16 01:20:27;;;;;;;3.90;3.60;;;15.90;50.80;17.10;101623.00;;;;5073361;28;20224;-50
2022/03/16 01:22:53;;;;;;;4.77;3.67;;;15.90;50.80;17.10;101619.00;;;;5071071;28;20192;-50
2022/03/16 01:25:18;;;;;;;3.40;3.10;;;15.90;50.80;17.10;101617.00;;;;5072927;28;20202;-51
2022/03/16 01:27:44;;;;;;;3.50;3.20;;;15.90;50.80;17.10;101617.00;;;;5073039;28;20178;-51
2022/03/16 01:30:11;;;;;;;3.73;3.37;;;15.80;50.70;17.00;101617.00;;;;5071851;28;20170;-50
2022/03/16 01:32:36;;;;;;;3.40;3.10;;;15.80;50.80;17.00;101619.00;;;;5072430;28;20253;-49
2022/03/16 01:35:02;;;;;;;3.50;3.20;;;15.80;50.80;17.00;101615.00;;;;5072068;28;20193;-49
2022/03/16 01:37:30;;;;;;;4.10;3.53;;;15.80;50.90;17.00;101623.00;;;;5072832;28;20169;-49
2022/03/16 01:39:56;;;;;;;3.43;3.13;;;15.80;50.90;17.00;101563.00;;;;5073516;28;20201;-49
2022/03/16 01:42:21;;;;;;;3.80;3.40;;;15.70;50.90;17.00;101618.00;;;;5072813;28;20196;-49
2022/03/16 01:44:53;;;;;;;3.60;3.30;;;15.70;50.90;16.90;101628.00;;;;5072665;28;20197;-48
2022/03/16 01:47:21;;;;;;;3.63;3.20;;;15.70;50.80;16.90;101613.00;;;;5071718;28;20670;-49
2022/03/16 01:49:48;;;;;;;3.50;3.20;;;15.70;50.80;16.90;101621.00;;;;5072957;28;20742;-49
2022/03/16 01:52:25;;;;;;;3.50;3.20;;;15.70;50.70;16.90;101624.00;;;;5055058;28;20821;-49
2022/03/16 01:54:50;;;;;;;3.47;3.17;;;15.60;50.70;16.90;101621.00;;;;5052171;28;20198;-49
2022/03/16 01:57:16;;;;;;;3.67;3.37;;;15.60;50.70;16.80;101618.00;;;;5053197;28;20181;-49
2022/03/16 01:59:42;;;;;;;3.77;3.47;;;15.60;52.10;16.80;101620.00;;;;5052787;28;20194;-49
2022/03/16 02:02:08;;;;;;;3.63;3.33;;;15.60;52.00;16.80;101622.00;;;;5051351;28;20180;-48
2022/03/16 02:04:34;;;;;;;3.40;3.10;;;15.60;51.50;16.80;101609.00;;;;5052279;28;20228;-49
2022/03/16 02:07:00;;;;;;;3.60;3.30;;;15.60;51.40;16.80;101606.00;;;;5050164;28;20639;-48
2022/03/16 02:09:25;;;;;;;3.30;3.00;;;15.50;51.30;16.80;101599.00;;;;5051290;28;20182;-49
2022/03/16 02:11:51;;;;;;;3.30;3.10;;;15.50;51.30;16.60;101604.00;;;;5050182;28;20306;-49
2022/03/16 02:14:19;;;;;;;3.50;3.20;;;15.50;51.30;16.80;101601.00;;;;5049750;28;20182;-49
2022/03/16 02:16:46;;;;;;;3.30;3.00;;;15.50;51.30;16.70;101579.00;;;;5051493;28;20205;-50
2022/03/16 02:19:11;;;;;;;3.10;2.90;;;15.50;51.30;16.70;101602.00;;;;5050864;28;20170;-48
2022/03/16 02:21:38;;;;;;;3.60;3.30;;;15.50;51.30;16.70;101593.00;;;;5050448;28;20227;-49
2022/03/16 02:24:07;;;;;;;3.20;2.90;;;15.50;51.30;16.70;101603.00;;;;5051346;28;20212;-49
2022/03/16 02:26:33;;;;;;;3.40;3.10;;;15.40;51.20;16.70;101600.00;;;;5049059;28;20259;-49
2022/03/16 02:28:59;;;;;;;3.20;2.90;;;15.40;51.20;16.70;101601.00;;;;5051302;28;20583;-49
2022/03/16 02:31:25;;;;;;;3.30;3.00;;;15.40;51.20;16.60;101597.00;;;;5050961;28;20178;-50
2022/03/16 02:33:51;;;;;;;3.13;2.80;;;15.40;51.20;16.60;101598.00;;;;5050873;28;20166;-49
2022/03/16 02:36:17;;;;;;;3.03;2.83;;;15.30;51.10;16.60;101601.00;;;;5051083;28;20194;-48
2022/03/16 02:38:42;;;;;;;3.27;3.07;;;15.40;51.20;16.60;101598.00;;;;5056998;28;20569;-48
2022/03/16 02:41:08;;;;;;;3.33;3.03;;;15.40;51.20;16.60;101606.00;;;;5054673;28;20178;-49
2022/03/16 02:43:34;;;;;;;3.10;2.90;;;15.30;51.20;16.60;101591.00;;;;5052270;28;20181;-49
2022/03/16 02:46:00;;;;;;;3.30;3.00;;;15.30;51.20;16.50;101588.00;;;;5061566;28;20198;-49
2022/03/16 02:48:25;;;;;;;3.10;2.90;;;15.30;51.20;16.50;101590.00;;;;5051716;28;20638;-49
2022/03/16 02:50:51;;;;;;;3.30;3.03;;;15.30;51.20;16.50;101589.00;;;;5054739;28;20175;-49
2022/03/16 02:53:17;;;;;;;3.00;2.80;;;15.30;51.20;16.50;101586.00;;;;5055424;28;20158;-49
2022/03/16 02:55:44;;;;;;;3.33;3.03;;;15.20;51.10;16.50;101600.00;;;;5056290;28;20201;-48
2022/03/16 02:58:13;;;;;;;2.93;2.73;;;15.20;50.90;16.50;101588.00;;;;5055679;28;20573;-49
2022/03/16 03:00:39;;;;;;;3.10;2.90;;;15.20;51.20;16.50;101593.00;;;;5054453;28;20235;-48
2022/03/16 03:03:05;;;;;;;3.30;3.00;;;15.20;51.20;16.40;101591.00;;;;5056078;28;20241;-48
2022/03/16 03:05:31;;;;;;;3.03;2.83;;;15.20;51.40;16.40;101596.00;;;;5055670;28;20752;-49
2022/03/16 03:07:56;;;;;;;3.10;2.80;;;15.10;52.00;16.40;101586.00;;;;5055348;28;20178;-49
2022/03/16 03:10:22;;;;;;;3.10;2.90;;;15.10;52.60;16.40;101584.00;;;;5056638;28;20177;-50
2022/03/16 03:12:48;;;;;;;3.10;2.90;;;15.10;51.90;16.40;101593.00;;;;5054407;28;20325;-49
2022/03/16 03:15:14;;;;;;;3.43;3.13;;;15.10;52.00;16.30;101590.00;;;;5054137;28;20193;-49
2022/03/16 03:17:40;;;;;;;3.50;3.20;;;15.10;52.20;16.30;101591.00;;;;5054540;28;20218;-49
2022/03/16 03:20:07;;;;;;;3.10;2.90;;;15.10;51.90;16.30;101577.00;;;;5054168;28;20236;-49
2022/03/16 03:22:32;;;;;;;3.23;2.93;;;15.10;51.90;16.30;101586.00;;;;5054952;28;20187;-49
2022/03/16 03:24:58;;;;;;;3.40;3.03;;;15.10;52.00;16.30;101584.00;;;;5053051;28;20259;-48
2022/03/16 03:27:24;;;;;;;3.27;3.07;;;15.10;52.00;16.30;101582.00;;;;5054298;28;20174;-49
2022/03/16 03:29:50;;;;;;;3.40;3.10;;;15.10;52.00;16.30;101570.00;;;;5054983;28;20169;-49
2022/03/16 03:32:16;;;;;;;3.03;2.80;;;15.10;52.00;16.30;101571.00;;;;5055884;28;20170;-49
2022/03/16 03:34:46;;;;;;;2.80;2.60;;;15.00;51.90;16.20;101562.00;;;;5055605;28;20231;-50
2022/03/16 03:37:15;;;;;;;3.10;2.90;;;15.00;51.90;16.20;101575.00;;;;5060471;28;20178;-53
2022/03/16 03:39:41;;;;;;;3.17;2.87;;;15.00;51.90;16.20;101568.00;;;;5062522;28;20170;-48
2022/03/16 03:42:07;;;;;;;3.10;2.73;;;15.00;51.90;16.20;101571.00;;;;5057013;28;20654;-49
2022/03/16 03:44:36;;;;;;;2.90;2.70;;;15.00;51.90;16.20;101570.00;;;;5054167;28;20253;-49
2022/03/16 03:47:06;;;;;;;3.10;2.80;;;14.90;51.80;16.20;101575.00;;;;5055513;28;20217;-49
2022/03/16 03:49:33;;;;;;;2.83;2.63;;;14.90;51.60;16.20;101588.00;;;;5054289;28;20719;-48
2022/03/16 03:51:59;;;;;;;2.80;2.60;;;14.80;51.70;16.10;101587.00;;;;5053888;28;20232;-48
2022/03/16 03:54:24;;;;;;;2.90;2.70;;;14.80;52.80;16.10;101589.00;;;;5055064;28;20201;-48
2022/03/16 03:56:50;;;;;;;2.97;2.77;;;14.80;51.90;16.10;101599.00;;;;5053442;28;20202;-48
2022/03/16 03:59:16;;;;;;;3.03;2.83;;;14.80;52.00;16.10;101592.00;;;;5053329;28;20186;-48
2022/03/16 04:01:41;;;;;;;2.80;2.60;;;14.70;51.70;16.10;101608.00;;;;5053931;28;20193;-49
2022/03/16 04:04:07;;;;;;;2.70;2.50;;;14.70;52.00;16.10;101603.00;;;;5052275;28;20189;-49
2022/03/16 04:06:33;;;;;;;2.70;2.50;;;14.70;51.80;16.10;101608.00;;;;5054030;28;20210;-49
2022/03/16 04:08:59;;;;;;;2.90;2.70;;;14.80;51.70;16.00;101593.00;;;;5053087;28;20171;-48
2022/03/16 04:11:25;;;;;;;2.80;2.60;;;14.80;51.70;16.00;101614.00;;;;5052458;28;20254;-52
2022/03/16 04:13:51;;;;;;;3.00;2.70;;;14.80;51.70;16.00;101621.00;;;;5052424;28;20198;-49
2022/03/16 04:16:16;;;;;;;2.90;2.70;;;14.70;51.60;16.00;101618.00;;;;5055425;28;20190;-49
2022/03/16 04:18:42;;;;;;;2.87;2.67;;;14.70;51.60;16.00;101615.00;;;;5063359;28;20190;-49
2022/03/16 04:21:08;;;;;;;2.80;2.60;;;14.70;51.60;16.00;101617.00;;;;5053207;28;20463;-49
2022/03/16 04:23:33;;;;;;;2.57;2.37;;;14.70;51.60;16.00;101620.00;;;;5052918;28;20193;-48
2022/03/16 04:25:59;;;;;;;2.70;2.50;;;14.70;52.30;16.00;101591.00;;;;5051731;28;20219;-49
2022/03/16 04:28:25;;;;;;;2.80;2.57;;;14.70;51.60;15.90;101622.00;;;;5052633;28;20660;-48
2022/03/16 04:30:51;;;;;;;3.67;2.70;;;14.70;52.00;15.90;101615.00;;;;5054550;28;20205;-49
2022/03/16 04:33:16;;;;;;;3.87;2.87;;;14.70;51.60;15.90;101626.00;;;;5055970;28;20174;-48
2022/03/16 04:35:42;;;;;;;5.60;3.00;;;14.70;51.60;15.90;101609.00;;;;5052464;28;20201;-48
2022/03/16 04:38:11;;;;;;;3.40;2.80;;;14.50;51.60;15.80;101609.00;;;;5054162;28;20170;-48
2022/03/16 04:40:36;;;;;;;3.60;2.97;;;14.50;51.90;15.80;101606.00;;;;5053946;28;20170;-49
2022/03/16 04:43:02;;;;;;;3.90;3.07;;;14.50;51.70;15.70;101614.00;;;;5051856;28;20174;-50
2022/03/16 04:45:28;;;;;;;4.83;3.50;;;14.50;51.50;15.70;101618.00;;;;5054382;28;20307;-48
2022/03/16 04:47:53;;;;;;;4.30;3.40;;;14.50;51.50;15.70;101623.00;;;;5053788;28;20174;-48
2022/03/16 04:50:19;;;;;;;3.67;3.20;;;14.50;51.40;15.70;101618.00;;;;5052979;28;20166;-49
2022/03/16 04:52:46;;;;;;;3.43;3.17;;;14.50;51.30;15.70;101612.00;;;;5053229;28;20162;-50
2022/03/16 04:55:11;;;;;;;4.83;3.60;;;14.50;51.20;15.70;101607.00;;;;5055141;28;20300;-50
2022/03/16 04:57:37;;;;;;;5.60;3.80;;;14.40;51.00;15.70;101613.00;;;;5054809;28;20196;-50
2022/03/16 05:00:04;;;;;;;3.50;3.20;;;14.50;50.90;15.60;101614.00;;;;5053592;28;20178;-49
2022/03/16 05:02:30;;;;;;;4.13;3.73;;;14.50;51.00;15.60;101605.00;;;;5053276;28;20201;-50
2022/03/16 05:04:55;;;;;;;4.27;3.37;;;14.40;50.80;15.60;101604.00;;;;5053199;28;20197;-50
2022/03/16 05:07:22;;;;;;;3.77;3.37;;;14.40;50.70;15.60;101620.00;;;;5059780;28;20194;-49
2022/03/16 05:09:48;;;;;;;4.80;3.50;;;14.40;51.10;15.60;101623.00;;;;5056052;28;20209;-49
2022/03/16 05:12:14;;;;;;;5.27;3.00;;;14.40;51.40;15.60;101620.00;;;;5050374;28;20162;-47
2022/03/16 05:14:40;;;;;;;3.80;3.20;;;14.40;51.30;15.50;101618.00;;;;5051910;28;20189;-47
2022/03/16 05:17:06;;;;;;;4.50;3.17;;;14.50;51.20;15.60;101604.00;;;;5058696;28;20186;-48
2022/03/16 05:19:32;;;;;;;6.90;2.93;;;14.50;51.20;15.60;101612.00;;;;5049605;28;20236;-48
2022/03/16 05:21:58;;;;;;;3.10;2.80;;;14.40;51.40;15.50;101603.00;;;;5050152;28;20162;-48
2022/03/16 05:24:24;;;;;;;8.90;2.97;;;14.50;51.40;15.60;101613.00;;;;5049107;28;20249;-49
2022/03/16 05:26:50;;;;;;;4.80;2.73;;;14.60;51.30;15.60;101612.00;;;;5049238;28;20206;-48
2022/03/16 05:29:16;;;;;;;6.17;3.20;;;14.80;51.20;15.70;101612.00;;;;5048737;28;20664;-47
2022/03/16 05:31:42;;;;;;;4.73;2.80;;;15.00;51.00;15.70;101606.00;;;;5049487;28;20184;-47
2022/03/16 05:34:08;;;;;;;4.93;2.60;;;15.20;50.60;15.80;101608.00;;;;5050942;28;20170;-48
2022/03/16 05:36:33;;;;;;;3.30;2.63;;;15.30;50.50;15.90;101615.00;;;;5049307;28;20658;-49
2022/03/16 05:38:59;;;;;;;7.43;2.50;;;15.40;50.30;16.00;101612.00;;;;5049852;28;20170;-49
2022/03/16 05:41:25;;;;;;;4.60;2.37;;;15.50;50.10;16.00;101619.00;;;;5064894;28;20179;-48
2022/03/16 05:43:51;;;;;;;3.77;2.60;;;15.50;50.70;16.10;101620.00;;;;5049269;28;20170;-48
2022/03/16 05:46:16;;;;;;;2.60;2.13;;;15.60;50.10;16.10;101624.00;;;;5047065;28;20194;-48
2022/03/16 05:48:42;;;;;;;3.83;2.30;;;15.60;50.10;16.20;101629.00;;;;5049856;28;20176;-48
2022/03/16 05:51:09;;;;;;;5.77;2.30;;;15.70;50.10;16.20;101631.00;;;;5059994;28;20178;-49
2022/03/16 05:53:34;;;;;;;3.67;2.27;;;15.70;50.00;16.30;101617.00;;;;5048933;28;20415;-47
2022/03/16 05:56:00;;;;;;;2.37;2.10;;;15.70;50.00;16.10;101634.00;;;;5047514;28;20230;-49
2022/03/16 05:58:26;;;;;;;3.63;2.03;;;15.80;50.00;16.30;101624.00;;;;5047808;28;20186;-48
2022/03/16 06:00:51;;;;;;;2.37;2.13;;;15.80;50.00;16.40;101629.00;;;;5048556;28;20220;-49
2022/03/16 06:03:17;;;;;;;2.97;2.20;;;15.80;50.00;16.40;101618.00;;;;5048880;28;20651;-49
2022/03/16 06:05:43;;;;;;;3.50;2.23;;;15.90;50.00;16.40;101629.00;;;;5049373;28;20324;-49
2022/03/16 06:08:09;;;;;;;2.40;2.20;;;15.90;50.00;16.50;101637.00;;;;5049088;28;20209;-48
2022/03/16 06:10:34;;;;;;;2.73;2.03;;;15.90;50.00;16.50;101636.00;;;;5050079;28;20514;-48
2022/03/16 06:13:03;;;;;;;2.57;2.20;;;15.90;50.00;16.50;101636.00;;;;5048158;28;20178;-48
2022/03/16 06:15:38;;;;;;;2.33;2.13;;;16.00;50.10;16.50;101633.00;;;;5050288;28;20194;-47
2022/03/16 06:18:04;;;;;;;2.30;2.10;;;16.00;50.00;16.60;101636.00;;;;5050216;28;20248;-47
2022/03/16 06:20:30;;;;;;;2.53;2.33;;;16.00;50.10;16.60;101639.00;;;;5051156;28;20217;-49
2022/03/16 06:22:55;;;;;;;2.20;2.00;;;16.00;50.00;16.60;101633.00;;;;5051229;28;20178;-48
2022/03/16 06:25:24;;;;;;;2.20;2.00;;;16.00;50.70;16.70;101622.00;;;;5053025;28;20259;-48
2022/03/16 06:27:50;;;;;;;3.03;2.40;;;16.10;50.10;16.70;101624.00;;;;5053007;28;20206;-49
2022/03/16 06:30:16;;;;;;;2.13;1.93;;;16.10;50.10;16.70;101620.00;;;;5052782;28;20588;-49
2022/03/16 06:32:45;;;;;;;2.40;2.20;;;16.10;50.10;16.70;101632.00;;;;5053676;28;20189;-48
2022/03/16 06:35:10;;;;;;;2.33;2.00;;;16.10;50.10;16.70;101621.00;;;;5059491;28;20193;-50
2022/03/16 06:37:36;;;;;;;3.07;2.00;;;16.10;50.10;16.80;101632.00;;;;5060259;28;20408;-48
2022/03/16 06:40:02;;;;;;;2.03;1.93;;;16.20;50.20;16.80;101638.00;;;;5052659;28;20189;-49
2022/03/16 06:42:28;;;;;;;2.20;2.07;;;16.10;50.10;16.80;101639.00;;;;5053946;28;20245;-48
2022/03/16 06:44:54;;;;;;;1.97;1.83;;;16.20;50.20;16.80;101638.00;;;;5053091;28;20728;-48
2022/03/16 06:47:19;;;;;;;2.20;2.00;;;16.20;50.20;16.80;101626.00;;;;5052275;28;20166;-49
2022/03/16 06:49:45;;;;;;;2.30;2.07;;;16.20;50.20;16.80;101633.00;;;;5054488;28;20174;-49
2022/03/16 06:52:11;;;;;;;2.60;2.00;;;16.20;50.20;16.90;101638.00;;;;5054971;28;20170;-49
2022/03/16 06:54:37;;;;;;;2.37;2.07;;;16.20;50.20;16.90;101624.00;;;;5056758;28;20226;-49
2022/03/16 06:57:02;;;;;;;2.20;2.00;;;16.30;50.30;16.90;101636.00;;;;5058552;28;20166;-48
2022/03/16 06:59:28;;;;;;;2.13;1.93;;;16.30;50.30;16.90;101635.00;;;;5056241;28;20512;-48
2022/03/16 07:01:54;;;;;;;2.03;1.90;;;16.30;50.30;16.90;101643.00;;;;5052079;28;20189;-49
2022/03/16 07:04:20;;;;;;;1.80;1.70;;;16.30;50.30;16.90;101642.00;;;;5053908;28;20194;-49
2022/03/16 07:06:45;;;;;;;2.23;1.90;;;16.30;50.30;16.90;101652.00;;;;5053245;28;20202;-49
2022/03/16 07:09:11;;;;;;;2.20;2.00;;;16.30;50.30;16.90;101644.00;;;;5053048;28;20177;-49
2022/03/16 07:11:37;;;;;;;2.07;1.93;;;16.40;50.40;17.00;101650.00;;;;5052567;28;20262;-49
2022/03/16 07:16:46;;;;;;;2.00;1.90;;;16.30;50.30;17.00;101640.00;;;;5053050;28;20564;-49
2022/03/16 07:19:12;;;;;;;2.03;1.90;;;16.40;50.40;17.00;101645.00;;;;5052832;28;20174;-49
2022/03/16 07:21:38;;;;;;;2.30;2.07;;;16.40;50.50;17.00;101639.00;;;;5052234;28;20170;-48
2022/03/16 07:24:05;;;;;;;2.17;1.97;;;16.40;50.50;17.00;101637.00;;;;5053849;28;20174;-50
2022/03/16 07:26:31;;;;;;;2.17;2.00;;;16.40;50.50;17.00;101637.00;;;;5056524;28;20190;-49
2022/03/16 07:28:56;;;;;;;2.40;1.93;;;16.50;50.60;17.10;101633.00;;;;5058458;28;20171;-49
2022/03/16 07:31:22;;;;;;;2.17;1.97;;;16.50;50.70;17.10;101626.00;;;;5053805;28;20166;-48
2022/03/16 07:33:48;;;;;;;2.30;2.10;;;16.50;50.70;17.10;101632.00;;;;5053093;28;20237;-49
2022/03/16 07:36:14;;;;;;;2.67;1.80;;;16.50;50.80;17.10;101629.00;;;;5052317;28;20186;-48
2022/03/16 07:38:40;;;;;;;2.80;2.00;;;16.50;50.80;17.10;101631.00;;;;5050501;28;20162;-47
2022/03/16 07:41:05;;;;;;;2.73;1.90;;;16.50;51.00;17.10;101625.00;;;;5048417;28;20559;-47
2022/03/16 07:43:31;;;;;;;3.37;2.17;;;16.60;51.00;17.20;101625.00;;;;5048462;28;20171;-46
2022/03/16 07:45:58;;;;;;;2.10;2.00;;;16.60;51.00;17.20;101634.00;;;;5047656;28;20201;-47
2022/03/16 07:48:23;;;;;;;2.20;2.00;;;16.60;51.30;17.20;101622.00;;;;5048227;28;20158;-47
2022/03/16 07:50:50;;;;;;;3.93;2.30;;;16.60;51.40;17.20;101625.00;;;;5048011;28;20304;-46
2022/03/16 07:53:16;;;;;;;2.80;2.30;;;16.60;51.40;17.20;101624.00;;;;5048282;28;20177;-46
2022/03/16 07:55:42;;;;;;;2.70;2.40;;;16.60;51.40;17.30;101617.00;;;;5047169;28;20198;-47
2022/03/16 07:58:08;;;;;;;3.63;2.40;;;16.60;51.30;17.30;101618.00;;;;5042581;28;22296;-48
2022/03/16 08:00:33;;;;;;;3.60;2.20;;;16.60;51.20;17.30;101617.00;;;;5034832;28;20174;-48
2022/03/16 08:03:01;;;;;;;2.47;2.27;;;16.60;51.30;17.30;101621.00;;;;5041203;28;20285;-47
2022/03/16 08:05:27;;;;;;;3.10;2.30;;;16.60;51.30;17.30;101621.00;;;;5046322;28;20229;-47
2022/03/16 08:07:53;;;;;;;2.77;2.53;;;16.50;51.20;17.30;101616.00;;;;5040838;28;21654;-46
2022/03/16 08:10:19;;;;;;;2.47;2.27;;;16.50;51.30;17.30;101621.00;;;;5044254;28;20201;-48
2022/03/16 08:12:45;;;;;;;2.60;2.40;;;16.50;51.40;17.30;101614.00;;;;5042217;28;20190;-45
2022/03/16 08:15:10;;;;;;;2.67;2.37;;;16.50;51.40;17.30;101609.00;;;;5041389;28;20288;-45
2022/03/16 08:17:36;;;;;;;2.93;2.33;;;16.50;51.40;17.30;101605.00;;;;5062883;28;20169;-49
2022/03/16 08:20:02;;;;;;;2.67;2.47;;;16.50;51.40;17.30;101614.00;;;;5070655;28;20616;-48
2022/03/16 08:22:29;;;;;;;4.93;2.30;;;16.40;51.40;17.30;101607.00;;;;5070532;28;20184;-47
2022/03/16 08:24:55;;;;;;;2.33;2.20;;;16.50;51.50;17.20;101603.00;;;;5071571;28;20207;-48
2022/03/16 08:27:22;;;;;;;2.47;2.27;;;16.40;51.60;17.20;101614.00;;;;5071452;28;20169;-47
2022/03/16 08:29:49;;;;;;;3.33;2.50;;;16.40;51.60;17.20;101626.00;;;;5058969;28;20178;-47
2022/03/16 08:32:15;;;;;;;4.93;2.50;;;16.40;51.80;17.20;101616.00;;;;5050086;28;20661;-46
2022/03/16 08:34:41;;;;;;;2.97;2.50;;;16.40;51.80;17.20;101621.00;;;;5049988;28;20237;-51
2022/03/16 08:37:07;;;;;;;3.33;2.60;;;16.40;51.90;17.20;101602.00;;;;5049873;28;20254;-47
2022/03/16 08:39:32;;;;;;;3.70;2.90;;;16.40;52.00;17.20;101604.00;;;;5049839;28;20155;-48
2022/03/16 08:41:58;;;;;;;4.43;2.80;;;16.40;52.70;17.20;101585.00;;;;5050199;28;20568;-48
2022/03/16 08:44:24;;;;;;;7.37;2.90;;;16.40;52.10;17.20;101605.00;;;;5050114;28;20524;-46
2022/03/16 08:46:50;;;;;;;8.30;3.03;;;16.40;52.60;17.20;101585.00;;;;5049504;28;20221;-47
2022/03/16 08:49:17;;;;;;;5.63;2.97;;;16.40;52.80;17.20;101592.00;;;;5049441;28;20169;-47
2022/03/16 08:51:43;;;;;;;7.37;2.90;;;16.40;53.10;17.20;101599.00;;;;5048112;28;20703;-47
2022/03/16 08:54:08;;;;;;;5.07;2.67;;;16.40;53.00;17.20;101616.00;;;;5051870;28;20163;-45
2022/03/16 08:56:35;;;;;;;5.53;2.83;;;16.40;53.00;16.90;101597.00;;;;5057027;28;20659;-45
2022/03/16 08:59:01;;;;;;;7.37;3.00;;;16.40;53.10;17.20;101608.00;;;;5047125;28;20263;-46
2022/03/16 09:01:27;;;;;;;8.47;3.17;;;16.40;52.90;17.20;101603.00;;;;5038265;28;20189;-45
2022/03/16 09:03:55;;;;;;;5.67;3.20;;;16.40;53.00;17.20;101589.00;;;;5039411;28;20170;-47
2022/03/16 09:06:21;;;;;;;7.53;3.53;;;16.40;53.10;17.20;101608.00;;;;5045591;28;20194;-44
2022/03/16 09:08:47;;;;;;;12.83;5.00;;;16.40;53.30;17.20;101584.00;;;;5039779;28;20181;-47
2022/03/16 09:11:13;;;;;;;12.53;5.10;;;16.40;53.20;17.20;101595.00;;;;5043365;28;20184;-47
2022/03/16 09:13:39;;;;;;;12.60;5.40;;;16.40;53.20;17.20;101584.00;;;;5033703;28;20176;-48
2022/03/16 09:16:05;;;;;;;14.53;5.50;;;16.40;53.20;17.10;101594.00;;;;5041690;28;20209;-47
2022/03/16 09:18:31;;;;;;;9.63;5.00;;;16.30;53.20;17.20;101598.00;;;;5045396;28;20173;-47
2022/03/16 09:20:57;;;;;;;12.37;5.47;;;16.30;53.20;17.20;101543.00;;;;5037019;28;20632;-47
2022/03/16 09:23:22;;;;;;;11.13;5.60;;;16.30;53.50;17.20;101598.00;;;;5039390;28;20198;-47
2022/03/16 09:25:48;;;;;;;13.13;5.03;;;16.30;53.50;17.20;101588.00;;;;5052478;28;20197;-48
2022/03/16 09:28:14;;;;;;;12.67;5.30;;;16.30;53.90;17.20;101601.00;;;;5038863;28;20236;-44
2022/03/16 09:30:40;;;;;;;10.90;5.03;;;16.30;53.60;17.20;101605.00;;;;5049120;28;20186;-46
2022/03/16 09:33:06;;;;;;;8.30;4.53;;;16.30;53.70;17.10;101583.00;;;;5050725;28;20170;-45
2022/03/16 09:35:33;;;;;;;12.27;4.93;;;16.30;53.60;17.10;101600.00;;;;5049396;28;20217;-48
2022/03/16 09:37:59;;;;;;;10.60;5.03;;;16.30;53.50;17.10;101593.00;;;;5049753;28;20250;-45
2022/03/16 09:40:25;;;;;;;10.07;4.70;;;16.30;53.60;17.10;101605.00;;;;5049910;28;20189;-47
2022/03/16 09:42:52;;;;;;;9.70;4.80;;;16.30;53.50;17.10;101603.00;;;;5049782;28;20182;-48
2022/03/16 09:45:19;;;;;;;9.33;4.40;;;16.30;53.50;17.10;101597.00;;;;5051872;28;20708;-46
2022/03/16 09:47:49;;;;;;;9.30;4.67;;;16.30;53.50;17.10;101607.00;;;;5049796;28;20639;-46
2022/03/16 09:50:18;;;;;;;9.47;4.80;;;16.30;53.40;17.10;101608.00;;;;5049175;28;20167;-47
2022/03/16 09:52:44;;;;;;;8.20;4.43;;;16.30;53.40;17.10;101609.00;;;;5049495;28;20245;-46
2022/03/16 09:55:09;;;;;;;6.43;4.00;;;16.30;53.40;17.10;101609.00;;;;5047992;28;20190;-46
2022/03/16 09:57:35;;;;;;;7.17;4.20;;;16.30;53.40;17.10;101618.00;;;;5049002;28;20220;-46
2022/03/16 10:00:01;;;;;;;7.87;4.40;;;16.30;53.40;17.00;101599.00;;;;5049093;28;20569;-45
2022/03/16 10:02:27;;;;;;;6.83;3.97;;;16.30;53.50;17.10;101607.00;;;;5049730;28;20178;-47
2022/03/16 10:04:53;;;;;;;6.33;4.07;;;16.30;53.50;17.10;101597.00;;;;5050801;28;20186;-45
2022/03/16 10:07:29;;;;;;;6.20;4.10;;;16.30;53.50;17.10;101586.00;;;;5056567;28;20170;-47
2022/03/16 10:15:24;;;;;;;7.33;4.10;;;16.30;53.50;17.10;101601.00;;;;5049284;28;20200;-47
2022/03/16 10:17:57;;;;;;;5.23;4.07;;;16.30;53.50;17.10;101530.00;;;;5047907;28;20538;-48
2022/03/16 10:20:42;;;;;;;7.27;3.80;;;16.30;53.50;17.10;101595.00;;;;5049192;28;20337;-45
2022/03/16 10:23:10;;;;;;;5.67;3.53;;;16.30;53.50;17.10;101591.00;;;;5049871;28;20155;-47
2022/03/16 10:25:51;;;;;;;7.13;4.03;;;16.30;53.50;17.10;101583.00;;;;5049675;28;20213;-45
2022/03/16 10:28:21;;;;;;;5.47;3.50;;;16.30;53.50;17.10;101586.00;;;;5049524;28;20242;-45
2022/03/16 10:31:07;;;;;;;4.57;3.40;;;16.30;53.50;17.10;101585.00;;;;5049062;28;20242;-46
2022/03/16 10:33:46;;;;;;;6.30;3.87;;;16.30;53.60;17.10;101589.00;;;;5049520;28;20159;-47
2022/03/16 10:36:14;;;;;;;4.80;3.40;;;16.30;53.60;17.10;101578.00;;;;5048922;28;20436;-45
2022/03/16 10:39:03;;;;;;;4.03;3.40;;;16.30;53.70;17.10;101574.00;;;;5049214;28;20183;-45
2022/03/16 10:47:18;;;;;;;3.97;3.20;;;16.30;53.70;17.10;101569.00;;;;5049036;28;20248;-47
2022/03/16 10:49:45;;;;;;;5.13;3.37;;;16.30;53.70;17.10;101563.00;;;;5048991;28;20514;-46
2022/03/16 10:52:17;;;;;;;4.07;3.20;;;16.30;53.70;17.10;101572.00;;;;5048397;28;20171;-47
2022/03/16 10:54:43;;;;;;;4.73;3.10;;;16.40;53.80;17.10;101575.00;;;;5050302;28;20159;-47
2022/03/16 10:57:13;;;;;;;3.50;2.80;;;16.30;53.70;17.20;101559.00;;;;5048080;28;20193;-47